sensor_id;sensor_type;location;lat;lon;timestamp;pressure;altitude;pressure_sealevel;temperature;humidity
61394;BME280;48555;50.952;-0.120;2023-03-21T00:00:13;100884.25;;;12.35;88.33
61394;BME280;48555;50.952;-0.120;2023-03-21T00:02:39;100880.81;;;12.34;87.97
61394;BME280;48555;50.952;-0.120;2023-03-21T00:05:05;100872.44;;;12.29;88.10
61394;BME280;48555;50.952;-0.120;2023-03-21T00:07:31;100862.94;;;12.28;88.13
61394;BME280;48555;50.952;-0.120;2023-03-21T00:09:56;100865.31;;;12.31;87.83
61394;BME280;48555;50.952;-0.120;2023-03-21T00:12:21;100859.97;;;12.33;87.64
61394;BME280;48555;50.952;-0.120;2023-03-21T00:14:47;100860.53;;;12.25;87.64
61394;BME280;48555;50.952;-0.120;2023-03-21T00:17:12;100862.81;;;12.30;87.32
61394;BME280;48555;50.952;-0.120;2023-03-21T00:19:40;100863.16;;;12.25;87.47
61394;BME280;48555;50.952;-0.120;2023-03-21T00:22:06;100861.50;;;12.24;87.57
61394;BME280;48555;50.952;-0.120;2023-03-21T00:24:32;100862.09;;;12.27;87.40
61394;BME280;48555;50.952;-0.120;2023-03-21T00:26:58;100859.34;;;12.29;87.53
61394;BME280;48555;50.952;-0.120;2023-03-21T00:29:23;100854.22;;;12.27;87.57
61394;BME280;48555;50.952;-0.120;2023-03-21T00:31:49;100862.59;;;12.33;87.22
61394;BME280;48555;50.952;-0.120;2023-03-21T00:34:14;100851.97;;;12.34;87.16
61394;BME280;48555;50.952;-0.120;2023-03-21T00:36:40;100858.03;;;12.35;87.41
61394;BME280;48555;50.952;-0.120;2023-03-21T00:39:05;100856.97;;;12.37;87.33
61394;BME280;48555;50.952;-0.120;2023-03-21T00:41:30;100848.88;;;12.40;86.90
61394;BME280;48555;50.952;-0.120;2023-03-21T00:43:56;100845.06;;;12.44;86.87
61394;BME280;48555;50.952;-0.120;2023-03-21T00:46:22;100838.13;;;12.43;86.88
61394;BME280;48555;50.952;-0.120;2023-03-21T00:48:47;100829.34;;;12.44;87.01
61394;BME280;48555;50.952;-0.120;2023-03-21T00:51:18;100826.72;;;12.44;87.12
61394;BME280;48555;50.952;-0.120;2023-03-21T00:53:50;100826.34;;;12.49;86.75
61394;BME280;48555;50.952;-0.120;2023-03-21T00:56:15;100823.94;;;12.57;86.45
61394;BME280;48555;50.952;-0.120;2023-03-21T00:58:40;100824.44;;;12.62;85.93
61394;BME280;48555;50.952;-0.120;2023-03-21T01:01:06;100816.19;;;12.67;85.67
61394;BME280;48555;50.952;-0.120;2023-03-21T01:03:33;100813.44;;;12.68;85.58
61394;BME280;48555;50.952;-0.120;2023-03-21T01:06:09;100813.19;;;12.71;85.55
61394;BME280;48555;50.952;-0.120;2023-03-21T01:08:41;100812.22;;;12.72;85.17
61394;BME280;48555;50.952;-0.120;2023-03-21T01:11:11;100806.16;;;12.72;85.03
61394;BME280;48555;50.952;-0.120;2023-03-21T01:13:37;100798.28;;;12.72;84.86
61394;BME280;48555;50.952;-0.120;2023-03-21T01:16:04;100801.75;;;12.72;84.79
61394;BME280;48555;50.952;-0.120;2023-03-21T01:18:30;100795.66;;;12.72;84.61
61394;BME280;48555;50.952;-0.120;2023-03-21T01:20:59;100793.75;;;12.74;84.76
61394;BME280;48555;50.952;-0.120;2023-03-21T01:23:25;100789.44;;;12.73;84.47
61394;BME280;48555;50.952;-0.120;2023-03-21T01:25:53;100787.78;;;12.72;84.48
61394;BME280;48555;50.952;-0.120;2023-03-21T01:28:18;100795.41;;;12.75;83.98
61394;BME280;48555;50.952;-0.120;2023-03-21T01:30:45;100790.16;;;12.75;84.05
61394;BME280;48555;50.952;-0.120;2023-03-21T01:33:11;100788.38;;;12.76;83.86
61394;BME280;48555;50.952;-0.120;2023-03-21T01:35:37;100778.84;;;12.75;83.75
61394;BME280;48555;50.952;-0.120;2023-03-21T01:38:02;100775.41;;;12.74;83.73
61394;BME280;48555;50.952;-0.120;2023-03-21T01:40:29;100778.75;;;12.65;83.64
61394;BME280;48555;50.952;-0.120;2023-03-21T01:42:55;100773.75;;;12.62;83.95
61394;BME280;48555;50.952;-0.120;2023-03-21T01:48:25;100774.59;;;12.62;83.91
61394;BME280;48555;50.952;-0.120;2023-03-21T01:50:51;100771.13;;;12.62;83.73
61394;BME280;48555;50.952;-0.120;2023-03-21T01:53:19;100771.72;;;12.65;83.43
61394;BME280;48555;50.952;-0.120;2023-03-21T01:55:46;100762.16;;;12.64;83.60
61394;BME280;48555;50.952;-0.120;2023-03-21T01:58:15;100758.69;;;12.64;83.67
61394;BME280;48555;50.952;-0.120;2023-03-21T02:00:49;100755.84;;;12.56;83.76
61394;BME280;48555;50.952;-0.120;2023-03-21T02:03:15;100747.78;;;12.47;84.10
61394;BME280;48555;50.952;-0.120;2023-03-21T02:06:00;100741.69;;;12.47;84.12
61394;BME280;48555;50.952;-0.120;2023-03-21T02:08:28;100751.09;;;12.49;83.51
61394;BME280;48555;50.952;-0.120;2023-03-21T02:10:54;100750.41;;;12.47;83.74
61394;BME280;48555;50.952;-0.120;2023-03-21T02:13:20;100748.63;;;12.48;83.48
61394;BME280;48555;50.952;-0.120;2023-03-21T02:15:57;100748.38;;;12.51;83.28
61394;BME280;48555;50.952;-0.120;2023-03-21T02:18:37;100736.22;;;12.50;83.32
61394;BME280;48555;50.952;-0.120;2023-03-21T02:32:14;100722.25;;;12.49;83.17
61394;BME280;48555;50.952;-0.120;2023-03-21T02:34:53;100728.34;;;12.50;83.27
61394;BME280;48555;50.952;-0.120;2023-03-21T02:37:41;100725.13;;;12.46;82.86
61394;BME280;48555;50.952;-0.120;2023-03-21T02:40:14;100724.28;;;12.46;82.83
61394;BME280;48555;50.952;-0.120;2023-03-21T02:45:25;100717.16;;;12.37;83.13
61394;BME280;48555;50.952;-0.120;2023-03-21T02:48:03;100718.72;;;12.39;83.36
61394;BME280;48555;50.952;-0.120;2023-03-21T02:50:33;100705.94;;;12.35;83.04
61394;BME280;48555;50.952;-0.120;2023-03-21T02:53:03;100706.56;;;12.38;83.00
61394;BME280;48555;50.952;-0.120;2023-03-21T02:55:32;100715.69;;;12.44;82.99
61394;BME280;48555;50.952;-0.120;2023-03-21T02:57:59;100712.00;;;12.46;82.86
61394;BME280;48555;50.952;-0.120;2023-03-21T03:00:28;100711.75;;;12.49;82.72
61394;BME280;48555;50.952;-0.120;2023-03-21T03:02:54;100707.16;;;12.42;82.33
61394;BME280;48555;50.952;-0.120;2023-03-21T03:05:25;100708.56;;;12.46;82.54
61394;BME280;48555;50.952;-0.120;2023-03-21T03:10:49;100697.81;;;12.49;82.17
61394;BME280;48555;50.952;-0.120;2023-03-21T03:18:52;100708.44;;;12.47;82.05
61394;BME280;48555;50.952;-0.120;2023-03-21T03:29:03;100682.00;;;12.39;81.11
61394;BME280;48555;50.952;-0.120;2023-03-21T03:31:37;100683.91;;;12.26;81.30
61394;BME280;48555;50.952;-0.120;2023-03-21T03:34:06;100691.19;;;12.22;81.20
61394;BME280;48555;50.952;-0.120;2023-03-21T03:36:38;100688.09;;;12.17;81.43
61394;BME280;48555;50.952;-0.120;2023-03-21T03:39:07;100676.09;;;12.15;81.57
61394;BME280;48555;50.952;-0.120;2023-03-21T03:41:41;100668.22;;;12.15;81.43
61394;BME280;48555;50.952;-0.120;2023-03-21T03:44:08;100668.00;;;12.18;81.16
61394;BME280;48555;50.952;-0.120;2023-03-21T03:49:22;100652.72;;;12.12;81.17
61394;BME280;48555;50.952;-0.120;2023-03-21T03:52:12;100648.94;;;12.04;81.29
61394;BME280;48555;50.952;-0.120;2023-03-21T03:54:43;100650.00;;;12.02;81.31
61394;BME280;48555;50.952;-0.120;2023-03-21T03:57:10;100655.25;;;12.02;81.34
61394;BME280;48555;50.952;-0.120;2023-03-21T03:59:39;100664.78;;;12.03;81.51
61394;BME280;48555;50.952;-0.120;2023-03-21T04:02:05;100663.09;;;12.02;81.27
61394;BME280;48555;50.952;-0.120;2023-03-21T04:04:32;100656.94;;;12.03;81.34
61394;BME280;48555;50.952;-0.120;2023-03-21T04:06:58;100659.31;;;12.06;81.25
61394;BME280;48555;50.952;-0.120;2023-03-21T04:09:24;100648.69;;;12.08;81.27
61394;BME280;48555;50.952;-0.120;2023-03-21T04:11:52;100650.47;;;12.07;81.07
61394;BME280;48555;50.952;-0.120;2023-03-21T04:14:18;100645.09;;;12.09;80.94
61394;BME280;48555;50.952;-0.120;2023-03-21T04:16:43;100633.78;;;12.08;81.01
61394;BME280;48555;50.952;-0.120;2023-03-21T04:19:09;100627.38;;;12.12;80.85
61394;BME280;48555;50.952;-0.120;2023-03-21T04:21:34;100640.22;;;12.15;80.67
61394;BME280;48555;50.952;-0.120;2023-03-21T04:23:59;100629.03;;;12.13;80.83
61394;BME280;48555;50.952;-0.120;2023-03-21T04:26:25;100629.59;;;12.17;80.36
61394;BME280;48555;50.952;-0.120;2023-03-21T04:28:57;100626.28;;;12.15;80.31
61394;BME280;48555;50.952;-0.120;2023-03-21T04:31:25;100637.47;;;12.17;80.19
61394;BME280;48555;50.952;-0.120;2023-03-21T04:33:53;100628.78;;;12.16;80.20
61394;BME280;48555;50.952;-0.120;2023-03-21T04:36:20;100623.06;;;12.11;80.13
61394;BME280;48555;50.952;-0.120;2023-03-21T04:38:55;100640.22;;;12.15;79.89
61394;BME280;48555;50.952;-0.120;2023-03-21T04:41:28;100643.09;;;12.12;80.33
61394;BME280;48555;50.952;-0.120;2023-03-21T04:43:54;100627.81;;;12.17;79.95
61394;BME280;48555;50.952;-0.120;2023-03-21T04:46:21;100636.53;;;12.18;79.89
61394;BME280;48555;50.952;-0.120;2023-03-21T04:48:46;100652.00;;;12.21;79.98
61394;BME280;48555;50.952;-0.120;2023-03-21T04:51:13;100635.31;;;12.22;79.96
61394;BME280;48555;50.952;-0.120;2023-03-21T04:53:38;100618.50;;;12.24;80.13
61394;BME280;48555;50.952;-0.120;2023-03-21T04:56:07;100617.44;;;12.27;79.89
61394;BME280;48555;50.952;-0.120;2023-03-21T04:58:32;100620.63;;;12.31;79.74
61394;BME280;48555;50.952;-0.120;2023-03-21T05:00:57;100618.25;;;12.27;80.07
61394;BME280;48555;50.952;-0.120;2023-03-21T05:03:23;100607.63;;;12.29;80.14
61394;BME280;48555;50.952;-0.120;2023-03-21T05:05:49;100610.41;;;12.27;80.24
61394;BME280;48555;50.952;-0.120;2023-03-21T05:08:15;100619.44;;;12.23;80.52
61394;BME280;48555;50.952;-0.120;2023-03-21T05:10:41;100617.06;;;12.20;80.82
61394;BME280;48555;50.952;-0.120;2023-03-21T05:13:06;100613.75;;;12.18;81.24
61394;BME280;48555;50.952;-0.120;2023-03-21T05:15:32;100612.34;;;12.14;81.52
61394;BME280;48555;50.952;-0.120;2023-03-21T05:17:57;100611.16;;;12.07;81.78
61394;BME280;48555;50.952;-0.120;2023-03-21T05:20:24;100605.09;;;12.07;82.08
61394;BME280;48555;50.952;-0.120;2023-03-21T05:22:50;100596.16;;;12.09;82.00
61394;BME280;48555;50.952;-0.120;2023-03-21T05:25:16;100585.78;;;12.08;82.01
61394;BME280;48555;50.952;-0.120;2023-03-21T05:27:58;100587.81;;;12.04;81.97
61394;BME280;48555;50.952;-0.120;2023-03-21T05:30:26;100597.59;;;12.02;82.58
61394;BME280;48555;50.952;-0.120;2023-03-21T05:32:52;100598.41;;;12.02;82.76
61394;BME280;48555;50.952;-0.120;2023-03-21T05:35:18;100602.59;;;12.05;82.59
61394;BME280;48555;50.952;-0.120;2023-03-21T05:37:43;100587.25;;;12.00;82.60
61394;BME280;48555;50.952;-0.120;2023-03-21T05:40:09;100590.69;;;12.01;82.78
61394;BME280;48555;50.952;-0.120;2023-03-21T05:42:34;100588.78;;;12.03;82.66
61394;BME280;48555;50.952;-0.120;2023-03-21T05:45:00;100587.69;;;12.05;82.73
61394;BME280;48555;50.952;-0.120;2023-03-21T05:47:25;100589.94;;;12.10;82.61
61394;BME280;48555;50.952;-0.120;2023-03-21T05:49:51;100591.41;;;12.03;82.92
61394;BME280;48555;50.952;-0.120;2023-03-21T05:52:16;100585.69;;;11.98;83.16
61394;BME280;48555;50.952;-0.120;2023-03-21T05:54:42;100581.88;;;12.02;83.18
61394;BME280;48555;50.952;-0.120;2023-03-21T05:57:08;100579.75;;;11.96;nan
61394;BME280;48555;50.952;-0.120;2023-03-21T05:59:33;100577.94;;;11.96;83.46
61394;BME280;48555;50.952;-0.120;2023-03-21T06:01:59;100574.97;;;12.01;83.29
61394;BME280;48555;50.952;-0.120;2023-03-21T06:04:24;100567.09;;;12.01;83.30
61394;BME280;48555;50.952;-0.120;2023-03-21T06:06:50;100570.88;;;12.08;83.24
61394;BME280;48555;50.952;-0.120;2023-03-21T06:09:18;100572.69;;;12.08;83.24
61394;BME280;48555;50.952;-0.120;2023-03-21T06:11:46;100567.59;;;12.06;83.63
61394;BME280;48555;50.952;-0.120;2023-03-21T06:14:12;100560.28;;;12.10;83.52
61394;BME280;48555;50.952;-0.120;2023-03-21T06:16:38;100568.75;;;12.13;83.39
61394;BME280;48555;50.952;-0.120;2023-03-21T06:19:03;100567.44;;;12.08;83.67
61394;BME280;48555;50.952;-0.120;2023-03-21T06:21:28;100554.91;;;12.11;83.63
61394;BME280;48555;50.952;-0.120;2023-03-21T06:23:53;100557.91;;;12.18;83.42
61394;BME280;48555;50.952;-0.120;2023-03-21T06:26:19;100557.19;;;12.16;83.45
61394;BME280;48555;50.952;-0.120;2023-03-21T06:28:48;100550.50;;;12.12;83.65
61394;BME280;48555;50.952;-0.120;2023-03-21T06:31:13;100540.91;;;12.01;83.77
61394;BME280;48555;50.952;-0.120;2023-03-21T06:33:38;100540.91;;;12.01;84.13
61394;BME280;48555;50.952;-0.120;2023-03-21T06:36:04;100551.88;;;11.95;84.44
61394;BME280;48555;50.952;-0.120;2023-03-21T06:38:29;100563.06;;;11.97;84.41
61394;BME280;48555;50.952;-0.120;2023-03-21T06:40:56;100553.44;;;11.97;84.68
61394;BME280;48555;50.952;-0.120;2023-03-21T06:43:22;100559.56;;;12.08;84.25
61394;BME280;48555;50.952;-0.120;2023-03-21T06:45:47;100551.69;;;12.19;84.16
61394;BME280;48555;50.952;-0.120;2023-03-21T06:48:12;100554.63;;;12.25;84.17
61394;BME280;48555;50.952;-0.120;2023-03-21T06:50:38;100560.00;;;12.24;84.24
61394;BME280;48555;50.952;-0.120;2023-03-21T06:53:03;100561.78;;;12.23;84.43
61394;BME280;48555;50.952;-0.120;2023-03-21T06:55:28;100564.59;;;12.32;84.13
61394;BME280;48555;50.952;-0.120;2023-03-21T06:57:55;100558.44;;;12.33;84.33
61394;BME280;48555;50.952;-0.120;2023-03-21T07:00:22;100568.06;;;12.32;84.30
61394;BME280;48555;50.952;-0.120;2023-03-21T07:02:48;100564.59;;;12.32;84.52
61394;BME280;48555;50.952;-0.120;2023-03-21T07:05:15;100570.44;;;12.35;84.73
61394;BME280;48555;50.952;-0.120;2023-03-21T07:07:40;100557.91;;;12.39;84.70
61394;BME280;48555;50.952;-0.120;2023-03-21T07:10:08;100565.06;;;12.37;84.78
61394;BME280;48555;50.952;-0.120;2023-03-21T07:12:34;100562.34;;;12.38;84.94
61394;BME280;48555;50.952;-0.120;2023-03-21T07:15:02;100550.88;;;12.39;85.00
61394;BME280;48555;50.952;-0.120;2023-03-21T07:17:28;100558.09;;;12.47;85.05
61394;BME280;48555;50.952;-0.120;2023-03-21T07:19:53;100556.44;;;12.46;85.21
61394;BME280;48555;50.952;-0.120;2023-03-21T07:22:19;100560.16;;;12.43;85.34
61394;BME280;48555;50.952;-0.120;2023-03-21T07:24:44;100560.28;;;12.42;85.54
61394;BME280;48555;50.952;-0.120;2023-03-21T07:27:14;100555.31;;;12.39;85.85
61394;BME280;48555;50.952;-0.120;2023-03-21T07:29:39;100554.91;;;12.43;85.64
61394;BME280;48555;50.952;-0.120;2023-03-21T07:32:05;100557.91;;;12.39;85.80
61394;BME280;48555;50.952;-0.120;2023-03-21T07:34:31;100583.75;;;12.43;85.92
61394;BME280;48555;50.952;-0.120;2023-03-21T07:36:58;100578.66;;;12.42;86.04
61394;BME280;48555;50.952;-0.120;2023-03-21T07:39:24;100573.16;;;12.45;86.13
61394;BME280;48555;50.952;-0.120;2023-03-21T07:41:50;100569.44;;;12.47;86.40
61394;BME280;48555;50.952;-0.120;2023-03-21T07:44:15;100577.56;;;12.44;86.46
61394;BME280;48555;50.952;-0.120;2023-03-21T07:46:41;100556.69;;;12.43;87.15
61394;BME280;48555;50.952;-0.120;2023-03-21T07:49:06;100573.84;;;12.47;87.30
61394;BME280;48555;50.952;-0.120;2023-03-21T07:51:33;100563.94;;;12.50;87.37
61394;BME280;48555;50.952;-0.120;2023-03-21T07:54:00;100567.66;;;12.48;87.35
61394;BME280;48555;50.952;-0.120;2023-03-21T07:56:26;100571.00;;;12.50;87.86
61394;BME280;48555;50.952;-0.120;2023-03-21T07:58:51;100560.94;;;12.55;87.81
61394;BME280;48555;50.952;-0.120;2023-03-21T08:01:17;100569.38;;;12.59;87.81
61394;BME280;48555;50.952;-0.120;2023-03-21T08:03:42;100577.69;;;12.64;87.98
61394;BME280;48555;50.952;-0.120;2023-03-21T08:06:08;100581.03;;;12.66;87.67
61394;BME280;48555;50.952;-0.120;2023-03-21T08:08:34;100574.38;;;12.62;88.04
61394;BME280;48555;50.952;-0.120;2023-03-21T08:10:59;100566.63;;;12.60;88.29
61394;BME280;48555;50.952;-0.120;2023-03-21T08:13:25;100560.63;;;12.69;88.08
61394;BME280;48555;50.952;-0.120;2023-03-21T08:15:50;100566.31;;;12.75;88.09
61394;BME280;48555;50.952;-0.120;2023-03-21T08:18:16;100554.03;;;12.75;88.20
61394;BME280;48555;50.952;-0.120;2023-03-21T08:20:41;100543.69;;;12.73;88.22
61394;BME280;48555;50.952;-0.120;2023-03-21T08:23:06;100546.16;;;12.75;88.63
61394;BME280;48555;50.952;-0.120;2023-03-21T08:25:32;100553.78;;;12.78;88.51
61394;BME280;48555;50.952;-0.120;2023-03-21T08:27:57;100553.66;;;12.80;88.77
61394;BME280;48555;50.952;-0.120;2023-03-21T08:30:26;100557.09;;;12.80;88.96
61394;BME280;48555;50.952;-0.120;2023-03-21T08:32:55;100566.38;;;12.84;89.30
61394;BME280;48555;50.952;-0.120;2023-03-21T08:35:22;100562.22;;;12.82;89.58
61394;BME280;48555;50.952;-0.120;2023-03-21T08:37:47;100570.34;;;12.79;90.23
61394;BME280;48555;50.952;-0.120;2023-03-21T08:40:15;100569.00;;;12.84;90.08
61394;BME280;48555;50.952;-0.120;2023-03-21T08:42:42;100568.06;;;12.85;90.00
61394;BME280;48555;50.952;-0.120;2023-03-21T08:45:08;100567.66;;;12.90;90.10
61394;BME280;48555;50.952;-0.120;2023-03-21T08:47:34;100570.47;;;12.98;90.21
61394;BME280;48555;50.952;-0.120;2023-03-21T08:50:00;100561.09;;;13.05;90.03
61394;BME280;48555;50.952;-0.120;2023-03-21T08:52:25;100557.69;;;13.14;90.17
61394;BME280;48555;50.952;-0.120;2023-03-21T08:54:52;100557.53;;;13.27;90.34
61394;BME280;48555;50.952;-0.120;2023-03-21T08:57:17;100558.38;;;13.37;90.67
61394;BME280;48555;50.952;-0.120;2023-03-21T08:59:43;100564.63;;;13.46;90.55
61394;BME280;48555;50.952;-0.120;2023-03-21T09:02:11;100556.47;;;13.49;90.07
61394;BME280;48555;50.952;-0.120;2023-03-21T09:04:37;100560.53;;;13.53;89.59
61394;BME280;48555;50.952;-0.120;2023-03-21T09:07:02;100558.31;;;13.58;89.39
61394;BME280;48555;50.952;-0.120;2023-03-21T09:09:29;100559.56;;;13.64;88.93
61394;BME280;48555;50.952;-0.120;2023-03-21T09:11:55;100553.38;;;13.65;88.85
61394;BME280;48555;50.952;-0.120;2023-03-21T09:14:20;100554.88;;;13.68;88.77
61394;BME280;48555;50.952;-0.120;2023-03-21T09:16:45;100546.75;;;13.71;88.66
61394;BME280;48555;50.952;-0.120;2023-03-21T09:19:11;100541.06;;;13.75;88.26
61394;BME280;48555;50.952;-0.120;2023-03-21T09:21:37;100553.22;;;13.76;88.27
61394;BME280;48555;50.952;-0.120;2023-03-21T09:24:03;100549.66;;;13.77;88.21
61394;BME280;48555;50.952;-0.120;2023-03-21T09:26:29;100561.00;;;13.78;88.13
61394;BME280;48555;50.952;-0.120;2023-03-21T09:28:55;100559.63;;;13.83;87.95
61394;BME280;48555;50.952;-0.120;2023-03-21T09:31:21;100554.09;;;13.86;87.97
61394;BME280;48555;50.952;-0.120;2023-03-21T09:33:51;100541.78;;;13.87;87.90
61394;BME280;48555;50.952;-0.120;2023-03-21T09:36:18;100544.69;;;13.84;87.96
61394;BME280;48555;50.952;-0.120;2023-03-21T09:38:45;100549.00;;;13.95;87.58
61394;BME280;48555;50.952;-0.120;2023-03-21T09:44:26;100545.09;;;13.89;87.27
61394;BME280;48555;50.952;-0.120;2023-03-21T09:47:03;100551.03;;;13.91;87.58
61394;BME280;48555;50.952;-0.120;2023-03-21T09:49:39;100551.34;;;13.98;87.62
61394;BME280;48555;50.952;-0.120;2023-03-21T09:52:38;100550.91;;;14.02;87.95
61394;BME280;48555;50.952;-0.120;2023-03-21T09:55:17;100559.78;;;14.11;87.29
61394;BME280;48555;50.952;-0.120;2023-03-21T09:57:45;100559.66;;;14.13;86.98
61394;BME280;48555;50.952;-0.120;2023-03-21T10:00:19;100576.38;;;14.12;86.79
61394;BME280;48555;50.952;-0.120;2023-03-21T10:02:50;100571.00;;;14.13;86.97
61394;BME280;48555;50.952;-0.120;2023-03-21T10:05:22;100566.72;;;14.12;86.66
61394;BME280;48555;50.952;-0.120;2023-03-21T10:07:55;100565.31;;;14.08;86.52
61394;BME280;48555;50.952;-0.120;2023-03-21T10:10:27;100544.56;;;14.05;86.42
61394;BME280;48555;50.952;-0.120;2023-03-21T10:12:54;100553.28;;;14.05;86.28
61394;BME280;48555;50.952;-0.120;2023-03-21T10:15:23;100560.06;;;14.08;86.54
61394;BME280;48555;50.952;-0.120;2023-03-21T10:17:58;100555.22;;;14.13;86.33
61394;BME280;48555;50.952;-0.120;2023-03-21T10:20:29;100556.06;;;14.14;86.47
61394;BME280;48555;50.952;-0.120;2023-03-21T10:22:56;100553.69;;;14.20;86.51
61394;BME280;48555;50.952;-0.120;2023-03-21T10:25:35;100551.50;;;14.25;86.25
61394;BME280;48555;50.952;-0.120;2023-03-21T10:28:03;100550.94;;;14.31;86.44
61394;BME280;48555;50.952;-0.120;2023-03-21T10:33:07;100546.78;;;14.39;86.24
61394;BME280;48555;50.952;-0.120;2023-03-21T10:35:35;100561.19;;;14.44;86.21
61394;BME280;48555;50.952;-0.120;2023-03-21T10:38:03;100559.28;;;14.56;86.44
61394;BME280;48555;50.952;-0.120;2023-03-21T10:40:29;100550.25;;;14.68;85.94
61394;BME280;48555;50.952;-0.120;2023-03-21T10:42:55;100545.13;;;14.76;85.15
61394;BME280;48555;50.952;-0.120;2023-03-21T10:45:22;100553.94;;;14.85;85.01
61394;BME280;48555;50.952;-0.120;2023-03-21T10:47:48;100550.91;;;14.90;84.47
61394;BME280;48555;50.952;-0.120;2023-03-21T10:50:17;100547.56;;;14.97;83.78
61394;BME280;48555;50.952;-0.120;2023-03-21T10:52:55;100550.56;;;15.03;83.12
61394;BME280;48555;50.952;-0.120;2023-03-21T10:55:33;100549.47;;;15.05;82.79
61394;BME280;48555;50.952;-0.120;2023-03-21T10:58:02;100528.56;;;15.04;82.54
61394;BME280;48555;50.952;-0.120;2023-03-21T11:00:37;100525.75;;;15.15;82.30
61394;BME280;48555;50.952;-0.120;2023-03-21T11:03:06;100533.88;;;15.21;81.90
61394;BME280;48555;50.952;-0.120;2023-03-21T11:05:37;100531.50;;;15.28;81.72
61394;BME280;48555;50.952;-0.120;2023-03-21T11:08:04;100527.44;;;15.34;81.58
61394;BME280;48555;50.952;-0.120;2023-03-21T11:10:36;100518.44;;;15.36;80.82
61394;BME280;48555;50.952;-0.120;2023-03-21T11:13:18;100514.69;;;15.29;80.51
61394;BME280;48555;50.952;-0.120;2023-03-21T11:15:55;100507.66;;;15.30;80.29
61394;BME280;48555;50.952;-0.120;2023-03-21T11:18:25;100513.06;;;15.28;80.67
61394;BME280;48555;50.952;-0.120;2023-03-21T11:20:56;100514.97;;;15.36;80.89
61394;BME280;48555;50.952;-0.120;2023-03-21T11:23:28;100506.31;;;15.43;80.74
61394;BME280;48555;50.952;-0.120;2023-03-21T11:25:54;100505.19;;;15.46;81.00
61394;BME280;48555;50.952;-0.120;2023-03-21T11:28:24;100504.91;;;15.49;80.54
61394;BME280;48555;50.952;-0.120;2023-03-21T11:30:55;100502.22;;;15.59;80.42
61394;BME280;48555;50.952;-0.120;2023-03-21T11:33:25;100499.13;;;15.63;80.10
61394;BME280;48555;50.952;-0.120;2023-03-21T11:36:26;100487.97;;;15.52;79.59
61394;BME280;48555;50.952;-0.120;2023-03-21T11:38:58;100502.88;;;15.61;79.21
61394;BME280;48555;50.952;-0.120;2023-03-21T11:41:31;100501.06;;;15.61;79.18
61394;BME280;48555;50.952;-0.120;2023-03-21T11:43:57;100500.94;;;15.63;79.16
61394;BME280;48555;50.952;-0.120;2023-03-21T11:46:26;100503.88;;;15.60;78.68
61394;BME280;48555;50.952;-0.120;2023-03-21T11:48:52;100506.28;;;15.53;78.58
61394;BME280;48555;50.952;-0.120;2023-03-21T11:56:44;100501.97;;;15.52;79.23
61394;BME280;48555;50.952;-0.120;2023-03-21T11:59:23;100508.34;;;15.50;78.91
61394;BME280;48555;50.952;-0.120;2023-03-21T12:13:16;100508.94;;;15.43;78.04
61394;BME280;48555;50.952;-0.120;2023-03-21T12:16:00;100516.72;;;15.45;78.16
61394;BME280;48555;50.952;-0.120;2023-03-21T12:24:25;100509.22;;;15.50;77.84
61394;BME280;48555;50.952;-0.120;2023-03-21T12:27:16;100510.75;;;15.43;77.95
61394;BME280;48555;50.952;-0.120;2023-03-21T12:38:27;100508.06;;;15.25;77.27
61394;BME280;48555;50.952;-0.120;2023-03-21T12:44:04;100486.91;;;15.17;77.66
61394;BME280;48555;50.952;-0.120;2023-03-21T12:49:27;100482.91;;;15.13;78.41
61394;BME280;48555;50.952;-0.120;2023-03-21T12:51:59;100493.28;;;15.14;78.37
61394;BME280;48555;50.952;-0.120;2023-03-21T12:54:45;100493.97;;;15.16;78.62
61394;BME280;48555;50.952;-0.120;2023-03-21T12:57:27;100493.25;;;15.24;78.86
61394;BME280;48555;50.952;-0.120;2023-03-21T13:02:51;100503.50;;;15.27;79.44
61394;BME280;48555;50.952;-0.120;2023-03-21T13:05:29;100498.34;;;15.35;79.10
61394;BME280;48555;50.952;-0.120;2023-03-21T13:08:03;100488.16;;;15.40;78.74
61394;BME280;48555;50.952;-0.120;2023-03-21T13:10:32;100493.00;;;15.45;78.31
61394;BME280;48555;50.952;-0.120;2023-03-21T13:21:03;100496.66;;;15.34;77.62
61394;BME280;48555;50.952;-0.120;2023-03-21T13:23:36;100504.97;;;15.39;77.63
61394;BME280;48555;50.952;-0.120;2023-03-21T13:26:02;100498.47;;;15.34;77.52
61394;BME280;48555;50.952;-0.120;2023-03-21T13:28:34;100493.91;;;15.26;77.43
61394;BME280;48555;50.952;-0.120;2023-03-21T13:31:16;100496.31;;;15.19;77.39
61394;BME280;48555;50.952;-0.120;2023-03-21T13:33:45;100498.66;;;15.22;77.58
61394;BME280;48555;50.952;-0.120;2023-03-21T13:36:12;100498.13;;;15.19;77.87
61394;BME280;48555;50.952;-0.120;2023-03-21T13:38:39;100487.59;;;15.19;77.73
61394;BME280;48555;50.952;-0.120;2023-03-21T13:41:12;100487.31;;;15.22;78.07
61394;BME280;48555;50.952;-0.120;2023-03-21T13:44:05;100494.09;;;15.25;77.86
61394;BME280;48555;50.952;-0.120;2023-03-21T13:46:43;100492.97;;;15.27;77.90
61394;BME280;48555;50.952;-0.120;2023-03-21T13:54:02;100480.91;;;15.25;77.20
61394;BME280;48555;50.952;-0.120;2023-03-21T13:56:28;100482.97;;;15.31;76.99
61394;BME280;48555;50.952;-0.120;2023-03-21T14:02:31;100486.88;;;15.27;76.93
61394;BME280;48555;50.952;-0.120;2023-03-21T14:05:04;100470.09;;;15.28;76.96
61394;BME280;48555;50.952;-0.120;2023-03-21T14:07:36;100487.53;;;15.29;77.13
61394;BME280;48555;50.952;-0.120;2023-03-21T14:10:12;100472.56;;;15.29;77.24
61394;BME280;48555;50.952;-0.120;2023-03-21T14:12:42;100472.13;;;15.34;77.03
61394;BME280;48555;50.952;-0.120;2023-03-21T14:15:18;100468.66;;;15.33;76.83
61394;BME280;48555;50.952;-0.120;2023-03-21T14:17:56;100464.91;;;15.36;76.82
61394;BME280;48555;50.952;-0.120;2023-03-21T14:20:26;100475.59;;;15.34;76.48
61394;BME280;48555;50.952;-0.120;2023-03-21T14:22:52;100463.09;;;15.36;76.03
61394;BME280;48555;50.952;-0.120;2023-03-21T14:25:20;100462.41;;;15.34;76.04